createdAt,value
2018-08-07T00:01:14.265Z,18.30
2018-08-07T00:06:11.062Z,18.30
2018-08-07T00:08:39.668Z,18.20
2018-08-07T00:11:08.222Z,18.20
2018-08-07T00:13:36.796Z,18.20
2018-08-07T00:16:05.317Z,18.20
2018-08-07T00:18:33.881Z,18.30
2018-08-07T00:21:02.478Z,18.30
2018-08-07T00:23:31.049Z,18.30
2018-08-07T00:25:59.565Z,18.30
2018-08-07T00:28:28.117Z,18.30
2018-08-07T00:30:56.665Z,18.30
2018-08-07T00:33:25.238Z,18.30
2018-08-07T00:35:53.788Z,18.30
2018-08-07T00:38:22.317Z,18.20
2018-08-07T00:40:50.903Z,18.20
2018-08-07T00:43:19.494Z,18.10
2018-08-07T00:45:48.084Z,18.00
2018-08-07T00:48:16.640Z,18.00
2018-08-07T00:50:45.271Z,17.90
2018-08-07T00:53:13.855Z,17.80
2018-08-07T00:55:42.464Z,17.80
2018-08-07T00:58:11.059Z,17.80
2018-08-07T01:00:39.678Z,17.70
2018-08-07T01:03:08.265Z,17.60
2018-08-07T01:05:36.850Z,17.60
2018-08-07T01:08:05.477Z,17.70
2018-08-07T01:10:33.970Z,17.70
2018-08-07T01:13:02.492Z,17.70
2018-08-07T01:17:59.361Z,17.80
2018-08-07T01:20:27.926Z,17.80
2018-08-07T01:25:25.921Z,17.70
2018-08-07T01:30:24.446Z,17.50
2018-08-07T01:32:53.406Z,17.30
2018-08-07T01:35:22.081Z,17.20
2018-08-07T01:37:50.672Z,17.10
2018-08-07T01:40:19.204Z,17.10
2018-08-07T01:42:47.742Z,17.00
2018-08-07T01:45:16.478Z,17.00
2018-08-07T01:47:45.037Z,16.90
2018-08-07T01:50:14.793Z,17.00
2018-08-07T01:52:43.627Z,16.90
2018-08-07T01:57:44.805Z,16.90
2018-08-07T02:00:13.377Z,16.90
2018-08-07T02:05:11.923Z,16.90
2018-08-07T02:07:40.921Z,17.10
2018-08-07T02:10:15.896Z,17.10
2018-08-07T02:12:44.455Z,17.10
2018-08-07T02:15:13.639Z,17.10
2018-08-07T02:17:42.203Z,17.00
2018-08-07T02:20:12.701Z,16.90
2018-08-07T02:25:12.526Z,16.80
2018-08-07T02:30:11.070Z,16.80
2018-08-07T02:32:39.976Z,16.80
2018-08-07T02:35:10.353Z,16.90
2018-08-07T02:40:08.745Z,16.80
2018-08-07T02:42:37.285Z,16.80
2018-08-07T02:45:08.637Z,16.80
2018-08-07T02:47:37.204Z,16.80
2018-08-07T02:50:06.344Z,16.80
2018-08-07T02:52:35.352Z,16.70
2018-08-07T02:55:04.545Z,16.70
2018-08-07T02:57:33.125Z,16.60
2018-08-07T03:00:01.719Z,16.60
2018-08-07T03:02:30.353Z,16.50
2018-08-07T03:04:58.990Z,16.50
2018-08-07T03:07:27.612Z,16.40
2018-08-07T03:09:56.120Z,16.40
2018-08-07T03:12:24.802Z,16.30
2018-08-07T03:14:53.416Z,16.30
2018-08-07T03:17:22.015Z,16.30
2018-08-07T03:22:18.817Z,16.40
2018-08-07T03:24:47.475Z,16.30
2018-08-07T03:27:16.094Z,16.30
2018-08-07T03:29:44.729Z,16.30
2018-08-07T03:32:13.412Z,16.30
2018-08-07T03:34:42.062Z,16.20
2018-08-07T03:37:10.677Z,16.20
2018-08-07T03:39:39.254Z,16.20
2018-08-07T03:42:07.973Z,16.20
2018-08-07T03:44:36.567Z,16.10
2018-08-07T03:47:05.286Z,16.10
2018-08-07T03:49:33.918Z,16.00
2018-08-07T03:52:02.468Z,16.00
2018-08-07T03:54:31.159Z,15.90
2018-08-07T03:56:59.733Z,15.80
2018-08-07T03:59:28.352Z,15.80
2018-08-07T04:01:56.960Z,15.70
2018-08-07T04:04:25.534Z,15.60
2018-08-07T04:09:22.277Z,15.50
2018-08-07T04:14:19.088Z,15.50
2018-08-07T04:16:55.871Z,15.50
2018-08-07T04:19:27.558Z,15.60
2018-08-07T04:21:57.190Z,15.50
2018-08-07T04:24:26.717Z,15.60
2018-08-07T04:26:55.397Z,15.60
2018-08-07T04:29:23.925Z,15.60
2018-08-07T04:31:52.559Z,15.60
2018-08-07T04:34:21.184Z,15.60
2018-08-07T04:36:50.250Z,15.70
2018-08-07T04:39:18.833Z,15.70
2018-08-07T04:41:47.512Z,15.80
2018-08-07T04:44:16.205Z,15.80
2018-08-07T04:46:44.766Z,15.90
2018-08-07T04:49:13.389Z,16.00
2018-08-07T04:51:42.187Z,16.00
2018-08-07T04:54:10.747Z,16.10
2018-08-07T04:56:39.484Z,16.10
2018-08-07T04:59:08.228Z,16.20
2018-08-07T05:01:36.821Z,16.30
2018-08-07T05:04:05.486Z,16.40
2018-08-07T05:06:34.078Z,16.50
2018-08-07T05:09:02.833Z,16.50
2018-08-07T05:11:31.372Z,16.60
2018-08-07T05:13:59.982Z,16.60
2018-08-07T05:16:28.599Z,16.70
2018-08-07T05:18:57.270Z,16.80
2018-08-07T05:21:25.882Z,16.90
2018-08-07T05:23:54.467Z,16.90
2018-08-07T05:26:23.001Z,17.00
2018-08-07T05:28:51.880Z,17.10
2018-08-07T05:31:20.456Z,17.20
2018-08-07T05:33:49.103Z,17.30
2018-08-07T05:36:17.740Z,17.40
2018-08-07T05:38:46.348Z,17.40
2018-08-07T05:41:15.025Z,17.50
2018-08-07T05:43:43.585Z,17.60
2018-08-07T05:46:12.141Z,17.70
2018-08-07T05:48:40.727Z,17.80
2018-08-07T05:51:09.626Z,17.80
2018-08-07T05:53:38.061Z,17.90
2018-08-07T05:56:06.717Z,18.00
2018-08-07T05:58:35.313Z,18.20
2018-08-07T06:01:03.862Z,18.30
2018-08-07T06:03:32.807Z,18.40
2018-08-07T06:06:01.374Z,18.50
2018-08-07T06:08:29.939Z,18.60
2018-08-07T06:10:58.501Z,18.80
2018-08-07T06:13:27.076Z,18.90
2018-08-07T06:18:23.893Z,19.10
2018-08-07T06:20:52.442Z,19.20
2018-08-07T06:23:21.128Z,19.30
2018-08-07T06:25:49.826Z,19.40
2018-08-07T06:28:18.505Z,19.50
2018-08-07T06:30:47.445Z,19.70
2018-08-07T06:33:16.085Z,19.80
2018-08-07T06:35:44.683Z,20.00
2018-08-07T06:38:13.445Z,20.20
2018-08-07T06:40:42.269Z,20.30
2018-08-07T06:43:11.148Z,20.40
2018-08-07T06:45:39.748Z,20.60
2018-08-07T06:48:08.323Z,20.70
2018-08-07T06:50:36.891Z,20.90
2018-08-07T06:53:05.792Z,21.00
2018-08-07T06:55:34.400Z,21.20
2018-08-07T06:58:02.951Z,21.30
2018-08-07T07:00:31.912Z,21.50
2018-08-07T07:03:00.437Z,21.70
2018-08-07T07:05:29.010Z,21.80
2018-08-07T07:07:57.684Z,22.10
2018-08-07T07:10:26.399Z,22.30
2018-08-07T07:12:55.164Z,22.40
2018-08-07T07:15:23.877Z,22.60
2018-08-07T07:17:52.438Z,22.80
2018-08-07T07:20:20.953Z,23.00
2018-08-07T07:22:49.985Z,23.20
2018-08-07T07:27:47.306Z,23.50
2018-08-07T07:30:18.206Z,23.70
2018-08-07T07:35:16.923Z,24.00
2018-08-07T07:37:45.643Z,24.20
2018-08-07T07:40:14.305Z,24.40
2018-08-07T07:42:42.893Z,24.60
2018-08-07T07:45:14.473Z,24.70
2018-08-07T07:47:43.126Z,24.80
2018-08-07T07:50:14.832Z,25.00
2018-08-07T07:52:43.755Z,25.20
2018-08-07T07:55:13.501Z,25.30
2018-08-07T07:57:42.266Z,25.40
2018-08-07T08:00:18.506Z,25.60
2018-08-07T08:05:37.766Z,25.90
2018-08-07T08:08:06.439Z,26.10
2018-08-07T08:10:35.000Z,26.30
2018-08-07T08:13:03.777Z,26.40
2018-08-07T08:15:32.421Z,26.60
2018-08-07T08:18:01.324Z,26.70
2018-08-07T08:20:30.042Z,26.90
2018-08-07T08:22:58.634Z,27.10
2018-08-07T08:25:27.321Z,27.20
2018-08-07T08:27:55.962Z,27.40
2018-08-07T08:30:24.595Z,27.50
2018-08-07T08:32:53.336Z,27.60
2018-08-07T08:35:21.989Z,27.70
2018-08-07T08:37:50.811Z,27.80
2018-08-07T08:40:22.239Z,27.90
2018-08-07T08:42:51.044Z,28.10
2018-08-07T08:45:22.138Z,28.20
2018-08-07T08:47:52.250Z,28.40
2018-08-07T08:50:21.868Z,28.60
2018-08-07T08:52:50.464Z,28.70
2018-08-07T08:55:19.170Z,28.80
2018-08-07T08:57:47.769Z,29.00
2018-08-07T09:00:21.082Z,29.10
2018-08-07T09:02:49.643Z,29.20
2018-08-07T09:05:18.817Z,29.30
2018-08-07T09:07:47.464Z,29.50
2018-08-07T09:10:20.158Z,29.70
2018-08-07T09:12:49.784Z,29.80
2018-08-07T09:15:18.777Z,29.90
2018-08-07T09:17:47.753Z,30.10
2018-08-07T09:20:22.298Z,30.10
2018-08-07T09:22:51.058Z,30.20
2018-08-07T09:25:20.394Z,30.30
2018-08-07T09:27:49.169Z,30.50
2018-08-07T09:30:19.905Z,30.60
2018-08-07T09:32:49.943Z,30.80
2018-08-07T09:35:19.427Z,30.70
2018-08-07T09:37:48.303Z,30.70
2018-08-07T09:40:18.194Z,30.70
2018-08-07T09:42:48.093Z,30.90
2018-08-07T09:45:19.568Z,31.00
2018-08-07T09:47:48.284Z,31.30
2018-08-07T09:50:18.704Z,31.50
2018-08-07T09:52:47.905Z,31.50
2018-08-07T09:55:16.567Z,31.60
2018-08-07T09:57:45.128Z,31.80
2018-08-07T10:00:21.517Z,32.00
2018-08-07T10:02:52.581Z,32.20
2018-08-07T10:05:23.240Z,32.30
2018-08-07T10:07:51.773Z,32.50
2018-08-07T10:10:20.870Z,32.70
2018-08-07T10:12:49.477Z,33.00
2018-08-07T10:17:51.335Z,33.10
2018-08-07T10:20:19.982Z,33.20
2018-08-07T10:22:48.574Z,33.40
2018-08-07T10:25:18.622Z,33.60
2018-08-07T10:27:48.030Z,33.80
2018-08-07T10:32:45.823Z,34.00
2018-08-07T10:35:14.905Z,34.00
2018-08-07T10:37:44.232Z,34.00
2018-08-07T10:40:14.342Z,34.20
2018-08-07T10:42:43.046Z,34.30
2018-08-07T10:45:13.380Z,34.50
2018-08-07T10:47:42.047Z,34.50
2018-08-07T10:50:18.627Z,34.60
2018-08-07T10:52:47.773Z,34.70
2018-08-07T10:55:16.476Z,34.50
2018-08-07T10:57:46.643Z,34.50
2018-08-07T11:00:17.672Z,34.50
2018-08-07T11:02:47.422Z,34.20
2018-08-07T11:05:16.364Z,34.00
2018-08-07T11:07:44.924Z,33.90
2018-08-07T11:10:14.305Z,33.70
2018-08-07T11:12:43.082Z,33.60
2018-08-07T11:15:17.548Z,33.60
2018-08-07T11:17:48.315Z,33.80
2018-08-07T11:20:17.907Z,34.00
2018-08-07T11:22:48.008Z,34.10
2018-08-07T11:25:19.832Z,34.10
2018-08-07T11:27:50.599Z,34.00
2018-08-07T11:30:22.213Z,34.20
2018-08-07T11:32:52.110Z,34.40
2018-08-07T11:35:21.619Z,34.40
2018-08-07T11:37:51.096Z,34.60
2018-08-07T11:40:22.696Z,34.60
2018-08-07T11:42:52.362Z,34.50
2018-08-07T11:45:23.458Z,34.50
2018-08-07T11:47:52.111Z,34.20
2018-08-07T11:50:23.588Z,34.20
2018-08-07T11:52:52.245Z,34.30
2018-08-07T11:55:23.819Z,34.30
2018-08-07T11:57:53.421Z,34.20
2018-08-07T12:00:38.953Z,34.10
2018-08-07T12:03:10.642Z,34.20
2018-08-07T12:05:39.227Z,34.50
2018-08-07T12:09:17.210Z,34.80
2018-08-07T12:11:45.799Z,35.00
2018-08-07T12:16:42.709Z,35.30
2018-08-07T12:19:11.286Z,35.50
2018-08-07T12:21:39.876Z,35.60
2018-08-07T12:24:08.792Z,35.60
2018-08-07T12:26:37.336Z,35.60
2018-08-07T12:29:05.978Z,35.50
2018-08-07T12:31:34.924Z,35.40
2018-08-07T12:34:03.556Z,35.40
2018-08-07T12:36:32.161Z,35.40
2018-08-07T12:39:00.750Z,35.30
2018-08-07T12:43:57.574Z,35.30
2018-08-07T12:46:26.330Z,35.50
2018-08-07T12:48:54.844Z,35.60
2018-08-07T12:51:23.420Z,35.80
2018-08-07T12:53:52.201Z,35.80
2018-08-07T12:56:21.005Z,35.70
2018-08-07T12:58:49.686Z,35.60
2018-08-07T13:01:18.229Z,35.50
2018-08-07T13:03:46.783Z,35.50
2018-08-07T13:06:15.359Z,35.80
2018-08-07T13:08:43.942Z,35.90
2018-08-07T13:11:12.484Z,36.00
2018-08-07T13:13:41.025Z,36.10
2018-08-07T13:16:09.608Z,36.10
2018-08-07T13:18:38.161Z,36.30
2018-08-07T13:21:06.725Z,36.60
2018-08-07T13:23:35.236Z,37.00
2018-08-07T13:26:03.845Z,37.10
2018-08-07T13:28:32.421Z,36.90
2018-08-07T13:31:01.702Z,36.80
2018-08-07T13:33:30.260Z,36.90
2018-08-07T13:35:58.872Z,36.90
2018-08-07T13:38:27.455Z,36.80
2018-08-07T13:40:56.113Z,36.60
2018-08-07T13:43:24.692Z,36.50
2018-08-07T13:45:53.490Z,36.60
2018-08-07T13:48:22.017Z,36.70
2018-08-07T13:50:50.594Z,36.80
2018-08-07T13:53:19.165Z,37.10
2018-08-07T13:55:47.840Z,37.60
2018-08-07T13:58:16.394Z,38.10
2018-08-07T14:00:44.966Z,38.50
2018-08-07T14:03:13.573Z,38.80
2018-08-07T14:05:42.113Z,38.90
2018-08-07T14:08:10.740Z,39.00
2018-08-07T14:10:39.313Z,39.10
2018-08-07T14:13:07.909Z,39.20
2018-08-07T14:15:36.587Z,39.30
2018-08-07T14:18:05.378Z,39.40
2018-08-07T14:20:33.984Z,39.30
2018-08-07T14:23:02.560Z,39.40
2018-08-07T14:25:31.135Z,39.60
2018-08-07T14:27:59.727Z,39.80
2018-08-07T14:30:29.706Z,39.50
2018-08-07T14:33:02.371Z,39.00
2018-08-07T14:35:30.990Z,38.60
2018-08-07T14:37:59.605Z,38.60
2018-08-07T14:40:28.709Z,38.40
2018-08-07T14:42:57.557Z,38.60
2018-08-07T14:45:27.660Z,38.50
2018-08-07T14:47:56.917Z,38.20
2018-08-07T14:50:27.314Z,38.20
2018-08-07T14:52:56.047Z,38.50
2018-08-07T14:55:25.035Z,38.60
2018-08-07T14:57:54.066Z,38.90
2018-08-07T15:00:24.395Z,39.40
2018-08-07T15:02:52.990Z,39.60
2018-08-07T15:05:21.525Z,39.90
2018-08-07T15:07:50.062Z,40.50
2018-08-07T15:10:20.581Z,41.00
2018-08-07T15:12:49.163Z,41.10
2018-08-07T15:17:48.106Z,41.30
2018-08-07T15:20:20.089Z,41.40
2018-08-07T15:22:49.857Z,41.50
2018-08-07T15:25:19.217Z,41.80
2018-08-07T15:27:47.905Z,41.90
2018-08-07T15:30:18.764Z,41.80
2018-08-07T15:32:48.077Z,41.30
2018-08-07T15:35:18.199Z,40.60
2018-08-07T15:37:47.003Z,39.90
2018-08-07T15:40:16.349Z,39.20
2018-08-07T15:42:45.589Z,39.00
2018-08-07T15:45:15.813Z,39.30
2018-08-07T15:47:44.472Z,39.80
2018-08-07T15:50:15.397Z,40.20
2018-08-07T15:52:45.419Z,40.50
2018-08-07T15:55:17.185Z,40.80
2018-08-07T15:57:45.864Z,40.90
2018-08-07T16:00:18.684Z,41.20
2018-08-07T16:02:47.307Z,41.40
2018-08-07T16:05:16.214Z,41.50
2018-08-07T16:07:44.857Z,41.60
2018-08-07T16:10:16.405Z,41.60
2018-08-07T16:12:46.178Z,41.20
2018-08-07T16:15:14.823Z,40.50
2018-08-07T16:17:44.448Z,40.00
2018-08-07T16:20:13.061Z,39.50
2018-08-07T16:22:41.845Z,39.10
2018-08-07T16:25:12.322Z,38.90
2018-08-07T16:27:42.469Z,38.70
2018-08-07T16:30:13.319Z,38.50
2018-08-07T16:32:41.933Z,38.40
2018-08-07T16:35:10.730Z,38.30
2018-08-07T16:37:39.341Z,38.20
2018-08-07T16:40:10.253Z,38.10
2018-08-07T16:42:39.219Z,38.00
2018-08-07T16:45:09.946Z,38.20
2018-08-07T16:47:39.130Z,38.50
2018-08-07T16:50:08.996Z,38.80
2018-08-07T16:52:37.732Z,39.00
2018-08-07T16:55:07.202Z,39.10
2018-08-07T16:57:35.806Z,39.40
2018-08-07T17:00:06.347Z,39.00
2018-08-07T17:02:35.037Z,38.40
2018-08-07T17:05:03.980Z,37.90
2018-08-07T17:10:00.808Z,37.70
2018-08-07T17:12:29.363Z,38.00
2018-08-07T17:14:57.948Z,38.20
2018-08-07T17:17:26.526Z,38.20
2018-08-07T17:19:55.133Z,38.20
2018-08-07T17:22:23.745Z,38.10
2018-08-07T17:24:52.347Z,37.80
2018-08-07T17:27:20.879Z,37.30
2018-08-07T17:29:49.477Z,36.80
2018-08-07T17:32:18.022Z,36.40
2018-08-07T17:34:46.622Z,35.90
2018-08-07T17:37:15.198Z,35.50
2018-08-07T17:39:43.827Z,35.20
2018-08-07T17:42:12.366Z,35.00
2018-08-07T17:44:40.917Z,34.90
2018-08-07T17:47:09.613Z,34.90
2018-08-07T17:49:38.240Z,34.90
2018-08-07T17:52:07.342Z,34.60
2018-08-07T17:54:35.902Z,34.30
2018-08-07T17:57:04.455Z,34.00
2018-08-07T17:59:33.107Z,33.70
2018-08-07T18:02:01.742Z,33.50
2018-08-07T18:04:30.436Z,33.50
2018-08-07T18:06:58.999Z,33.40
2018-08-07T18:09:27.563Z,33.00
2018-08-07T18:11:56.135Z,32.40
2018-08-07T18:14:24.700Z,32.00
2018-08-07T18:16:53.337Z,31.70
2018-08-07T18:19:21.945Z,31.30
2018-08-07T18:21:50.586Z,31.10
2018-08-07T18:24:19.153Z,30.80
2018-08-07T18:26:47.680Z,30.40
2018-08-07T18:29:16.381Z,30.10
2018-08-07T18:31:44.970Z,29.70
2018-08-07T18:34:13.536Z,29.50
2018-08-07T18:36:42.086Z,29.30
2018-08-07T18:39:10.788Z,29.20
2018-08-07T18:41:39.498Z,29.00
2018-08-07T18:44:08.118Z,28.90
2018-08-07T18:46:37.298Z,28.80
2018-08-07T18:49:05.881Z,28.60
2018-08-07T18:51:34.627Z,28.50
2018-08-07T18:54:03.157Z,28.40
2018-08-07T18:56:31.733Z,28.30
2018-08-07T18:59:00.339Z,28.20
2018-08-07T19:01:28.896Z,28.10
2018-08-07T19:03:57.453Z,28.00
2018-08-07T19:06:25.978Z,28.00
2018-08-07T19:08:54.638Z,27.90
2018-08-07T19:13:51.380Z,27.70
2018-08-07T19:16:20.119Z,27.60
2018-08-07T19:18:48.697Z,27.60
2018-08-07T19:21:17.254Z,27.50
2018-08-07T19:23:45.826Z,27.30
2018-08-07T19:28:42.664Z,27.20
2018-08-07T19:31:11.260Z,27.00
2018-08-07T19:33:40.012Z,26.90
2018-08-07T19:36:08.596Z,26.70
2018-08-07T19:38:37.346Z,26.60
2018-08-07T19:41:06.120Z,26.50
2018-08-07T19:43:34.682Z,26.40
2018-08-07T19:46:03.309Z,26.30
2018-08-07T19:48:31.918Z,26.20
2018-08-07T19:51:00.546Z,26.20
2018-08-07T19:53:29.133Z,26.10
2018-08-07T19:55:57.876Z,26.10
2018-08-07T20:00:54.621Z,26.00
2018-08-07T20:03:23.274Z,26.00
2018-08-07T20:08:26.575Z,25.90
2018-08-07T20:10:55.218Z,25.90
2018-08-07T20:13:23.794Z,26.00
2018-08-07T20:16:21.053Z,26.00
2018-08-07T20:18:49.692Z,26.10
2018-08-07T20:21:18.313Z,26.20
2018-08-07T20:23:46.858Z,26.20
2018-08-07T20:26:15.766Z,26.40
2018-08-07T20:28:44.217Z,26.40
2018-08-07T20:31:12.969Z,26.50
2018-08-07T20:33:41.562Z,26.50
2018-08-07T20:36:10.209Z,26.50
2018-08-07T20:38:38.738Z,26.50
2018-08-07T20:41:07.513Z,26.50
2018-08-07T20:43:36.136Z,26.50
2018-08-07T20:46:04.715Z,26.40
2018-08-07T20:48:33.304Z,26.40
2018-08-07T20:51:01.894Z,26.40
2018-08-07T20:53:30.512Z,26.40
2018-08-07T20:55:59.190Z,26.30
2018-08-07T20:58:27.902Z,26.20
2018-08-07T21:00:56.529Z,26.10
2018-08-07T21:03:25.090Z,26.10
2018-08-07T21:05:55.015Z,26.10
2018-08-07T21:08:23.721Z,26.00
2018-08-07T21:10:52.731Z,26.00
2018-08-07T21:13:21.476Z,25.90
2018-08-07T21:15:50.670Z,25.90
2018-08-07T21:18:19.420Z,25.90
2018-08-07T21:20:48.119Z,25.80
2018-08-07T21:23:16.657Z,25.80
2018-08-07T21:25:45.283Z,25.80
2018-08-07T21:28:13.984Z,25.70
2018-08-07T21:30:42.606Z,25.70
2018-08-07T21:33:11.276Z,25.70
2018-08-07T21:35:39.902Z,25.60
2018-08-07T21:38:08.533Z,25.60
2018-08-07T21:40:37.121Z,25.50
2018-08-07T21:43:05.789Z,25.50
2018-08-07T21:45:34.361Z,25.50
2018-08-07T21:48:02.870Z,25.50
2018-08-07T21:50:31.422Z,25.50
2018-08-07T21:52:59.965Z,25.60
2018-08-07T21:55:28.477Z,25.70
2018-08-07T21:57:57.026Z,25.70
2018-08-07T22:00:32.054Z,25.70
2018-08-07T22:03:00.585Z,25.70
2018-08-07T22:05:29.198Z,25.70
2018-08-07T22:07:57.742Z,25.70
2018-08-07T22:10:26.459Z,25.60
2018-08-07T22:12:55.027Z,25.60
2018-08-07T22:15:23.575Z,25.50
2018-08-07T22:17:52.184Z,25.40
2018-08-07T22:20:20.788Z,25.30
2018-08-07T22:22:49.395Z,25.20
2018-08-07T22:25:18.230Z,25.20
2018-08-07T22:27:46.815Z,25.10
2018-08-07T22:30:19.181Z,25.00
2018-08-07T22:32:48.103Z,24.90
2018-08-07T22:35:17.082Z,24.80
2018-08-07T22:37:45.677Z,24.70
2018-08-07T22:40:14.817Z,24.70
2018-08-07T22:42:43.461Z,24.70
2018-08-07T22:45:13.819Z,24.70
2018-08-07T22:47:42.651Z,24.70
2018-08-07T22:50:12.642Z,24.60
2018-08-07T22:52:41.514Z,24.60
2018-08-07T22:55:12.256Z,24.60
2018-08-07T22:57:40.924Z,24.50
2018-08-07T23:00:13.452Z,24.40
2018-08-07T23:02:41.998Z,24.30
2018-08-07T23:05:11.319Z,24.20
2018-08-07T23:07:39.869Z,24.20
2018-08-07T23:10:11.109Z,24.10
2018-08-07T23:12:39.774Z,24.10
2018-08-07T23:15:11.712Z,24.00
2018-08-07T23:17:40.652Z,23.90
2018-08-07T23:20:10.479Z,23.80
2018-08-07T23:22:39.116Z,23.70
2018-08-07T23:25:07.673Z,23.40
2018-08-07T23:27:36.627Z,23.20
2018-08-07T23:30:07.129Z,23.00
2018-08-07T23:32:35.869Z,22.90
2018-08-07T23:35:04.870Z,22.80
2018-08-07T23:37:33.444Z,22.70
2018-08-07T23:40:02.193Z,22.50
2018-08-07T23:42:30.834Z,22.40
2018-08-07T23:44:59.898Z,22.30
2018-08-07T23:47:28.694Z,22.20
2018-08-07T23:49:57.282Z,22.10
2018-08-07T23:52:26.162Z,22.00
2018-08-07T23:54:54.765Z,21.90
2018-08-07T23:57:23.369Z,21.90
2018-08-07T23:59:51.949Z,21.80
